Helston, United Kingdom
Current Conditions -  °F | °C
As of 10:50 PM on Sunday 28 Dec 2014 (Local Time) from EGDR Reporting Station
Clear Clear  
Wind Chill: -5°   Ceiling: Unl
Heat Index: -1°   Visibility: 6mi
Dew Point: -3°   Wind: 7mph
Humidity: 86%   Direction: 60°ENE
Pressure: 30.68"   Gusts: NA
Location:  50.08°N, 5.2°W
Report Text: EGDR 282250Z 06006KT CAVOK M01/M03 Q1039 BLU
Loading
Personal Weather Stations






























Interactive Weather Map New forecast layout! Learn more

10-Day Weather Forecast

Advertisements
Track Severe Weather on mobile